Weather search by city/station or by Location Indicator (LI)

Please do one of the following:
a) Search the weather station by station, city or country name and click Search button
b) Enter the four-character Location Indicator (i.e. EFHK = Helsinki) and click Submit button

a) Search the station:   

b) Location Indicator:  

The ICAO Location Indicator code is explained here.

METAR = EFHK 071750Z 22014KT 9999 -DZRA FEW007 BKN009 BKN011 06/05 Q0979 NOSIG

STATIONEFHK
NAMEHelsinki/Vantaa Arpt, --, FI
OBSERVED07.12.2019 19:50 (07.12.2019 17:50 UTC), 11 min ago
TEMPERATURE6.0°C ( 43°F)
WINDCHILL1.7 °C (35 °F)
WINDSW (220 degrees) at 16 MPH (14 knots; 7.2 m/s)
HUMIDITY93%
PRESSURE979 hPa
CONDITIONSlight drizzle, light rain